• Join FlightAware (Why Join?)
  • Login
  • US Flag 
10:52AM EDT


 

Airport Tracker/Info


-or-


 

Live Flight TrackerFlight Track Log ✈ FAB822 ✈ 08-May-2013 ✈ CYUX - CYFB

Flight Track Log - Related Links

Times and Time Zones

All times are in EDT time to prevent confusion due to time zone crossing. See the FAB822 flight status page for this flight to view local times or setup timezone preferences in your user account.

Time Position Orientation Groundspeed Altitude Reporting Facility
EDT Latitude Longitude Course Direction KTS MPH feet Rate Location/Type
11:37AM 68.3133 -79.6971 128° Southeast  Level Estimated
11:38AM 68.2709 -79.5588 130° Southeast  Level FlightAware Approximate
11:39AM 68.2284 -79.4211 130° Southeast  Level FlightAware Approximate
11:40AM 68.1854 -79.2847 131° Southeast  Level Estimated
11:41AM 68.1420 -79.1494 131° Southeast  Level FlightAware Approximate
11:42AM 68.0985 -79.0147 131° Southeast  Level FlightAware Approximate
11:43AM 68.0552 -78.8798 132° Southeast  Level Estimated
11:44AM 68.0104 -78.7486 132° Southeast  Level FlightAware Approximate
11:45AM 67.9654 -78.6179 132° Southeast  Level FlightAware Approximate
11:46AM 67.9204 -78.4878 133° Southeast  Level FlightAware Approximate
11:47AM 67.8753 -78.3581 133° Southeast  Level FlightAware Approximate
11:48AM 67.8315 -78.2256 131° Southeast  Level Estimated
11:49AM 67.7876 -78.0936 131° Southeast  Level Estimated
11:50AM 67.7436 -77.9622 131° Southeast  Level FlightAware Approximate
11:51AM 67.6994 -77.8313 132° Southeast  Level FlightAware Approximate
11:52AM 67.6551 -77.7009 132° Southeast  Level FlightAware Approximate
11:53AM 67.6107 -77.5710 132° Southeast  Level FlightAware Approximate
11:54AM 67.5662 -77.4416 132° Southeast  Level FlightAware Approximate
11:55AM 67.5216 -77.3127 132° Southeast  Level FlightAware Approximate
11:56AM 67.4769 -77.1842 132° Southeast  Level FlightAware Approximate
11:57AM 67.4321 -77.0563 132° Southeast  Level FlightAware Approximate
11:58AM 67.3872 -76.9288 132° Southeast  Level FlightAware Approximate
11:59AM 67.3422 -76.8018 133° Southeast  Level FlightAware Approximate
12:00PM 67.2972 -76.6751 133° Southeast  Level Estimated
12:01PM 67.2519 -76.5493 133° Southeast  Level FlightAware Approximate
12:02PM 67.2065 -76.4239 133° Southeast  Level FlightAware Approximate
12:03PM 67.1610 -76.2990 133° Southeast  Level FlightAware Approximate
12:04PM 67.1154 -76.1747 133° Southeast  Level FlightAware Approximate
12:05PM 67.0697 -76.0507 133° Southeast  Level FlightAware Approximate
12:06PM 67.0239 -75.9273 134° Southeast  Level FlightAware Approximate
12:07PM 66.9781 -75.8043 134° Southeast  Level FlightAware Approximate
12:08PM 66.9321 -75.6817 134° Southeast  Level FlightAware Approximate
12:09PM 66.8860 -75.5597 134° Southeast  Level FlightAware Approximate
12:10PM 66.8399 -75.4381 134° Southeast  Level FlightAware Approximate
12:11PM 66.7936 -75.3169 134° Southeast  Level FlightAware Approximate
12:12PM 66.7473 -75.1962 134° Southeast  Level FlightAware Approximate
12:13PM 66.7008 -75.0760 134° Southeast  Level FlightAware Approximate
12:14PM 66.6543 -74.9562 134° Southeast  Level FlightAware Approximate
12:15PM 66.6077 -74.8369 135° Southeast  Level FlightAware Approximate
12:16PM 66.5610 -74.7180 135° Southeast  Level FlightAware Approximate
12:17PM 66.5142 -74.5995 135° Southeast  Level FlightAware Approximate
12:18PM 66.4673 -74.4815 135° Southeast  Level FlightAware Approximate
12:19PM 66.4203 -74.3640 135° Southeast  Level FlightAware Approximate
12:20PM 66.3732 -74.2468 135° Southeast  Level FlightAware Approximate
12:21PM 66.3261 -74.1301 135° Southeast  Level FlightAware Approximate
12:22PM 66.2788 -74.0139 135° Southeast  Level FlightAware Approximate
12:23PM 66.2315 -73.8981 135° Southeast  Level FlightAware Approximate
12:24PM 66.1841 -73.7827 135° Southeast  Level FlightAware Approximate
12:25PM 66.1366 -73.6678 136° Southeast  Level FlightAware Approximate
12:26PM 66.0890 -73.5533 136° Southeast  Level FlightAware Approximate
12:27PM 66.0413 -73.4392 136° Southeast  Level FlightAware Approximate
12:28PM 65.9936 -73.3256 136° Southeast  Level FlightAware Approximate
12:29PM 65.9457 -73.2123 136° Southeast  Level FlightAware Approximate
12:30PM 65.8978 -73.0995 136° Southeast  Level FlightAware Approximate
12:31PM 65.8498 -72.9872 136° Southeast  Level FlightAware Approximate
12:31PM 66.0333 -73.2667 137° Southeast 260 299 25,000  Level Edmonton Center
12:32PM 65.8018 -72.8752 136° Southeast  Level FlightAware Approximate
12:32PM 65.9833 -73.1000 126° Southeast 250 288 25,000  Level Edmonton Center
12:33PM 65.7536 -72.7636 136° Southeast  Level FlightAware Approximate
12:33PM 65.9333 -72.9833 136° Southeast 250 288 25,000  Level Edmonton Center
12:34PM 65.7053 -72.6525 137° Southeast  Level FlightAware Approximate
12:34PM 65.8833 -72.8833 141° Southeast 250 288 25,000  Level Edmonton Center
12:35PM 65.6570 -72.5418 137° Southeast  Level FlightAware Approximate
12:35PM 65.8333 -72.7500 132° Southeast 250 288 25,000  Level Edmonton Center
12:36PM 65.6086 -72.4315 137° Southeast  Level FlightAware Approximate
12:36PM 65.8000 -72.6667 134° Southeast 250 288 25,000  Level Edmonton Center
12:37PM 65.7500 -72.5500 136° Southeast 250 288 25,000  Level Edmonton Center
12:37PM 65.7667 -72.6667 289° West 250 288 25,000  Level Montreal Center
12:39PM 65.6333 -72.3167 133° Southeast 250 288 25,000  Level Edmonton Center
12:39PM 65.6667 -72.4333 305° West 250 288 25,000  Level Montreal Center
12:40PM 65.6167 -72.3167 136° Southeast 250 288 25,000  Level Montreal Center
12:41PM 65.5667 -72.2000 136° Southeast 250 288 25,000  Level Montreal Center
12:42PM 65.5167 -72.1000 140° Southeast 250 288 25,000  Level Montreal Center
12:43PM 65.4500 -71.8500 123° Southeast 240 276 25,000  Level Edmonton Center
12:43PM 65.4667 -71.9833 287° West 250 288 25,000  Level Montreal Center
12:44PM 65.3833 -71.7500 131° Southeast 250 288 25,000  Level Edmonton Center
12:45PM 65.3333 -71.6333 136° Southeast 250 288 25,000  Level Edmonton Center
12:46PM 65.3000 -71.5000 121° Southeast 250 288 25,000  Level Edmonton Center
12:47PM 65.2500 -71.4167 145° Southeast 250 288 25,000  Level Edmonton Center
12:48PM 65.1833 -71.2833 140° Southeast 250 288 25,000  Level Edmonton Center
12:49PM 65.1333 -71.1667 136° Southeast 250 288 25,000  Level Edmonton Center
12:50PM 65.0833 -71.0500 135° Southeast 250 288 25,000  Level Edmonton Center
12:50PM 65.1167 -71.2000 298° West 250 288 25,000  Level Montreal Center
12:51PM 65.0500 -71.0833 144° Southeast 250 288 25,000  Level Montreal Center
12:52PM 65.0167 -70.9833 128° Southeast 250 288 25,000  Level Montreal Center
12:53PM 64.9333 -70.7667 132° Southeast 250 288 25,000  Level Edmonton Center
12:54PM 64.8833 -70.6500 135° Southeast 250 288 25,000  Level Edmonton Center
12:55PM 64.8333 -70.5333 135° Southeast 250 288 25,000  Level Edmonton Center
12:56PM 64.7667 -70.4000 140° Southeast 250 288 25,000  Level Edmonton Center
12:56PM 64.8000 -70.5500 298° West 250 288 25,000  Level Montreal Center
12:57PM 64.7167 -70.3000 128° Southeast 260 299 25,000  Level Edmonton Center
12:57PM 64.7500 -70.4333 300° West 250 288 25,000  Level Montreal Center
12:58PM 64.6667 -70.1833 128° Southeast 260 299 25,000  Level Edmonton Center
12:59PM 64.6167 -70.0833 139° Southeast 260 299 25,000  Level Edmonton Center
12:59PM 64.6500 -70.2167 300° West 260 299 25,000  Level Montreal Center
01:00PM 64.5833 -70.1167 147° Southeast 260 299 25,000  Level Montreal Center
01:01PM 64.5333 -69.9667 128° Southeast 260 299 25,000 -600 Level Montreal Center
01:02PM 64.4500 -69.7667 134° Southeast 260 299 24,200 -2,100 Descending Edmonton Center
01:03PM 64.3833 -69.6333 139° Southeast 290 334 22,000 -2,400 Descending Edmonton Center
01:04PM 64.3167 -69.5000 139° Southeast 290 334 19,500 -2,400 Descending Edmonton Center
01:04PM 64.3500 -69.6167 303° West 280 322 18,400 -2,520 Descending Montreal Center
01:05PM 64.3000 -69.5167 139° Southeast 270 311 15,700 -2,460 Descending Montreal Center
01:06PM 64.2500 -69.4167 139° Southeast 260 299 13,500 -2,160 Descending Montreal Center
01:07PM 64.1833 -69.3167 147° Southeast 250 288 11,400 -1,980 Descending Montreal Center
01:08PM 64.1333 -69.2500 150° Southeast 240 276 9,600 -1,800 Descending Montreal Center
01:09PM 64.0833 -69.1500 139° Southeast 230 265 7,800 -1,620 Descending Montreal Center
01:10PM 64.0333 -69.0333 134° Southeast 210 242 6,400 -1,260 Descending Montreal Center
01:11PM 64.0000 -68.9667 139° Southeast 180 207 5,300 -1,020 Descending Montreal Center
01:12PM 63.9667 -68.9500 168° South 140 161 4,400 -840 Descending Montreal Center
01:13PM 63.9500 -68.8667 114° Southeast 130 150 3,700 -900 Descending Montreal Center
01:14PM 63.9333 -68.8333 139° Southeast 120 138 2,700 -840 Descending Montreal Center
01:15PM 63.9167 -68.8000 139° Southeast 90 104 2,100 -540 Descending Montreal Center
01:16PM 63.9000 -68.7333 120° Southeast 90 104 1,700 -240 Descending Montreal Center
01:17PM 63.8667 -68.7000 156° South 100 115 1,700 -60 Level Montreal Center
01:18PM 63.8500 -68.6667 139° Southeast 80 92 1,600 -180 Descending Montreal Center
01:19PM 63.8333 -68.6333 139° Southeast 80 92 1,400 -360 Descending Montreal Center
01:20PM 63.8167 -68.6000 139° Southeast 80 92 900 -300 Descending Montreal Center
01:21PM 63.8167 -68.5667 90° East 80 92 800 -360 Descending Montreal Center
01:22PM 63.8000 -68.5333 139° Southeast 90 104 200 -600 Descending Montreal Center